createdAt,value
2017-12-27T00:00:36.924Z,1.57
2017-12-27T00:03:10.806Z,1.50
2017-12-27T00:05:43.872Z,1.90
2017-12-27T00:08:17.093Z,1.93
2017-12-27T00:13:55.648Z,2.50
2017-12-27T00:16:28.961Z,1.70
2017-12-27T00:19:02.143Z,1.83
2017-12-27T00:21:36.058Z,2.03
2017-12-27T00:24:09.984Z,1.93
2017-12-27T00:26:43.812Z,1.50
2017-12-27T00:29:17.131Z,1.00
2017-12-27T00:31:44.143Z,1.53
2017-12-27T00:34:11.679Z,1.20
2017-12-27T00:36:39.188Z,3.17
2017-12-27T00:39:06.738Z,1.70
2017-12-27T00:41:34.260Z,1.70
2017-12-27T00:44:02.554Z,1.10
2017-12-27T00:46:30.834Z,1.47
2017-12-27T00:48:58.395Z,1.50
2017-12-27T00:51:25.905Z,1.20
2017-12-27T00:53:53.435Z,1.57
2017-12-27T00:56:20.979Z,1.50
2017-12-27T00:58:49.931Z,1.53
2017-12-27T01:01:18.236Z,1.30
2017-12-27T01:03:45.768Z,1.27
2017-12-27T01:06:13.861Z,1.33
2017-12-27T01:08:41.395Z,1.20
2017-12-27T01:11:08.896Z,1.40
2017-12-27T01:13:36.440Z,1.03
2017-12-27T01:16:03.951Z,1.50
2017-12-27T01:18:31.495Z,1.60
2017-12-27T01:20:59.003Z,1.10
2017-12-27T01:23:27.319Z,1.33
2017-12-27T01:25:54.955Z,1.30
2017-12-27T01:28:22.467Z,1.10
2017-12-27T01:30:50.009Z,0.93
2017-12-27T01:33:17.527Z,0.93
2017-12-27T01:35:45.063Z,1.00
2017-12-27T01:38:13.327Z,1.70
2017-12-27T01:40:40.875Z,1.30
2017-12-27T01:43:08.382Z,1.10
2017-12-27T01:45:35.937Z,1.27
2017-12-27T01:48:04.336Z,1.10
2017-12-27T01:50:31.895Z,1.10
2017-12-27T01:52:59.402Z,1.30
2017-12-27T01:55:26.943Z,1.50
2017-12-27T01:57:54.454Z,1.47
2017-12-27T02:00:22.759Z,1.37
2017-12-27T02:02:50.265Z,1.27
2017-12-27T02:05:17.807Z,1.30
2017-12-27T02:07:45.355Z,1.50
2017-12-27T02:10:13.631Z,1.47
2017-12-27T02:12:41.946Z,1.40
2017-12-27T02:15:09.452Z,1.80
2017-12-27T02:17:37.012Z,1.27
2017-12-27T02:20:05.636Z,1.30
2017-12-27T02:22:33.143Z,1.70
2017-12-27T02:25:01.472Z,1.13
2017-12-27T02:27:28.971Z,1.30
2017-12-27T02:32:47.305Z,1.23
2017-12-27T02:35:14.877Z,1.20
2017-12-27T02:37:43.146Z,1.33
2017-12-27T02:40:25.559Z,1.67
2017-12-27T02:42:53.070Z,1.20
2017-12-27T02:45:20.663Z,0.87
2017-12-27T02:47:48.207Z,1.20
2017-12-27T02:50:16.497Z,1.10
2017-12-27T02:52:44.044Z,0.90
2017-12-27T02:55:11.560Z,1.43
2017-12-27T02:57:39.125Z,1.13
2017-12-27T03:00:06.633Z,0.97
2017-12-27T03:02:34.143Z,1.00
2017-12-27T03:05:02.455Z,1.23
2017-12-27T03:07:29.970Z,1.20
2017-12-27T03:09:57.542Z,1.10
2017-12-27T03:12:25.059Z,1.10
2017-12-27T03:14:52.596Z,1.17
2017-12-27T03:17:20.125Z,0.90
2017-12-27T03:19:47.659Z,0.90
2017-12-27T03:22:15.163Z,1.23
2017-12-27T03:24:42.719Z,1.23
2017-12-27T03:27:10.995Z,0.93
2017-12-27T03:29:39.279Z,1.13
2017-12-27T03:32:07.615Z,1.40
2017-12-27T03:34:35.123Z,0.97
2017-12-27T03:37:02.675Z,1.27
2017-12-27T03:39:30.175Z,0.87
2017-12-27T03:41:57.711Z,1.57
2017-12-27T03:44:25.219Z,1.20
2017-12-27T03:46:52.782Z,1.03
2017-12-27T03:49:20.280Z,1.40
2017-12-27T03:51:48.561Z,0.93
2017-12-27T03:54:16.852Z,1.13
2017-12-27T03:56:45.123Z,1.00
2017-12-27T03:59:12.662Z,1.23
2017-12-27T04:01:41.001Z,1.17
2017-12-27T04:04:08.570Z,1.30
2017-12-27T04:06:36.103Z,1.20
2017-12-27T04:09:03.656Z,1.20
2017-12-27T04:11:32.786Z,1.10
2017-12-27T04:14:00.342Z,1.00
2017-12-27T04:16:27.852Z,1.37
2017-12-27T04:18:55.355Z,0.83
2017-12-27T04:21:23.667Z,0.90
2017-12-27T04:23:51.167Z,1.27
2017-12-27T04:26:18.708Z,0.83
2017-12-27T04:28:46.216Z,0.90
2017-12-27T04:31:13.759Z,1.00
2017-12-27T04:33:41.277Z,0.70
2017-12-27T04:36:08.832Z,1.10
2017-12-27T04:38:36.337Z,0.80
2017-12-27T04:41:04.664Z,0.80
2017-12-27T04:43:32.163Z,1.10
2017-12-27T04:45:59.767Z,0.90
2017-12-27T04:48:27.271Z,0.97
2017-12-27T04:50:54.777Z,1.13
2017-12-27T04:53:22.318Z,1.00
2017-12-27T04:55:50.516Z,0.93
2017-12-27T04:58:18.063Z,0.90
2017-12-27T05:00:45.566Z,0.93
2017-12-27T05:03:13.148Z,1.10
2017-12-27T05:05:40.643Z,1.17
2017-12-27T05:08:08.543Z,1.33
2017-12-27T05:10:36.813Z,0.80
2017-12-27T05:13:04.315Z,1.20
2017-12-27T05:15:32.623Z,0.63
2017-12-27T05:18:00.135Z,1.20
2017-12-27T05:20:27.675Z,1.23
2017-12-27T05:22:55.179Z,1.00
2017-12-27T05:25:22.727Z,1.27
2017-12-27T05:27:50.228Z,1.03
2017-12-27T05:30:17.769Z,0.90
2017-12-27T05:32:45.283Z,0.87
2017-12-27T05:35:12.827Z,0.77
2017-12-27T05:37:40.334Z,0.87
2017-12-27T05:40:07.888Z,1.37
2017-12-27T05:42:35.388Z,1.10
2017-12-27T05:45:03.707Z,1.00
2017-12-27T05:47:31.214Z,0.93
2017-12-27T05:49:58.725Z,1.07
2017-12-27T05:52:27.053Z,1.23
2017-12-27T05:54:54.856Z,0.70
2017-12-27T05:57:22.412Z,0.93
2017-12-27T05:59:49.916Z,1.10
2017-12-27T06:02:17.479Z,0.83
2017-12-27T06:04:44.993Z,0.93
2017-12-27T06:07:12.511Z,1.27
2017-12-27T06:09:40.052Z,1.30
2017-12-27T06:12:07.867Z,1.07
2017-12-27T06:14:35.403Z,0.90
2017-12-27T06:17:02.907Z,1.00
2017-12-27T06:19:31.203Z,0.90
2017-12-27T06:21:58.710Z,1.13
2017-12-27T06:24:27.011Z,1.17
2017-12-27T06:26:55.468Z,1.00
2017-12-27T06:29:22.976Z,1.00
2017-12-27T06:31:50.524Z,1.27
2017-12-27T06:34:18.791Z,1.30
2017-12-27T06:36:46.350Z,1.00
2017-12-27T06:39:13.857Z,1.23
2017-12-27T06:41:41.408Z,0.90
2017-12-27T06:44:08.912Z,0.97
2017-12-27T06:46:37.188Z,1.07
2017-12-27T06:49:05.501Z,1.40
2017-12-27T06:51:33.004Z,1.40
2017-12-27T06:54:01.681Z,1.17
2017-12-27T06:56:31.780Z,1.47
2017-12-27T06:58:59.319Z,1.30
2017-12-27T07:01:26.827Z,1.60
2017-12-27T07:03:55.146Z,1.50
2017-12-27T07:06:22.653Z,1.13
2017-12-27T07:08:50.210Z,1.43
2017-12-27T07:11:17.752Z,1.20
2017-12-27T07:13:45.303Z,1.60
2017-12-27T07:16:13.612Z,1.30
2017-12-27T07:18:41.116Z,1.50
2017-12-27T07:21:09.499Z,1.50
2017-12-27T07:23:37.034Z,1.60
2017-12-27T07:26:05.380Z,1.67
2017-12-27T07:28:32.891Z,1.40
2017-12-27T07:31:01.165Z,1.60
2017-12-27T07:33:28.707Z,1.27
2017-12-27T07:35:56.540Z,1.37
2017-12-27T07:38:24.857Z,1.57
2017-12-27T07:40:52.368Z,1.33
2017-12-27T07:43:21.022Z,1.30
2017-12-27T07:45:48.536Z,1.10
2017-12-27T07:48:16.097Z,1.50
2017-12-27T07:50:44.863Z,1.60
2017-12-27T07:53:12.371Z,1.40
2017-12-27T07:55:39.914Z,1.57
2017-12-27T07:58:07.421Z,1.20
2017-12-27T08:00:34.965Z,1.60
2017-12-27T08:03:02.471Z,1.90
2017-12-27T08:05:30.012Z,1.37
2017-12-27T08:07:57.519Z,1.37
2017-12-27T08:10:25.058Z,1.60
2017-12-27T08:12:52.567Z,1.33
2017-12-27T08:15:20.127Z,1.50
2017-12-27T08:17:47.636Z,1.60
2017-12-27T08:20:15.959Z,1.40
2017-12-27T08:22:44.316Z,1.27
2017-12-27T08:25:12.597Z,1.30
2017-12-27T08:27:40.140Z,1.20
2017-12-27T08:30:07.639Z,1.00
2017-12-27T08:32:35.944Z,1.00
2017-12-27T08:35:03.451Z,1.27
2017-12-27T08:37:31.012Z,1.20
2017-12-27T08:40:01.383Z,1.30
2017-12-27T08:42:33.568Z,1.10
2017-12-27T08:45:01.113Z,1.20
2017-12-27T08:47:28.672Z,1.10
2017-12-27T08:49:56.220Z,1.40
2017-12-27T08:52:24.499Z,1.57
2017-12-27T08:54:53.022Z,1.20
2017-12-27T08:57:20.541Z,1.30
2017-12-27T08:59:48.111Z,1.23
2017-12-27T09:02:15.616Z,1.20
2017-12-27T09:04:43.190Z,1.47
2017-12-27T09:07:11.521Z,1.10
2017-12-27T09:09:39.312Z,1.00
2017-12-27T09:12:06.839Z,1.00
2017-12-27T09:14:34.411Z,1.40
2017-12-27T09:17:03.298Z,1.20
2017-12-27T09:19:31.583Z,0.90
2017-12-27T09:21:59.165Z,1.47
2017-12-27T09:24:28.539Z,1.13
2017-12-27T09:26:56.075Z,0.97
2017-12-27T09:29:23.584Z,1.30
2017-12-27T09:31:51.936Z,0.87
2017-12-27T09:34:19.472Z,0.83
2017-12-27T09:36:47.032Z,1.00
2017-12-27T09:39:14.539Z,1.30
2017-12-27T09:41:42.851Z,0.93
2017-12-27T09:44:10.354Z,0.90
2017-12-27T09:46:37.895Z,0.93
2017-12-27T09:49:05.399Z,1.20
2017-12-27T09:51:32.916Z,1.10
2017-12-27T09:54:00.509Z,1.00
2017-12-27T09:56:28.031Z,1.17
2017-12-27T09:58:55.576Z,1.07
2017-12-27T10:01:23.078Z,1.03
2017-12-27T10:03:50.628Z,1.13
2017-12-27T10:06:18.131Z,1.07
2017-12-27T10:08:46.442Z,0.97
2017-12-27T10:11:14.712Z,1.10
2017-12-27T10:13:43.027Z,0.90
2017-12-27T10:16:10.533Z,0.83
2017-12-27T10:18:38.035Z,0.60
2017-12-27T10:21:05.592Z,0.90
2017-12-27T10:23:33.096Z,1.00
2017-12-27T10:26:01.404Z,1.57
2017-12-27T10:28:28.907Z,0.73
2017-12-27T10:30:56.456Z,0.60
2017-12-27T10:33:23.959Z,0.90
2017-12-27T10:35:51.495Z,0.60
2017-12-27T10:38:19.012Z,1.00
2017-12-27T10:40:46.560Z,0.90
2017-12-27T10:43:14.060Z,0.77
2017-12-27T10:45:41.607Z,0.70
2017-12-27T10:48:09.253Z,1.03
2017-12-27T10:50:36.768Z,0.90
2017-12-27T10:53:04.315Z,0.70
2017-12-27T10:55:31.846Z,0.70
2017-12-27T10:57:59.375Z,0.70
2017-12-27T11:00:26.879Z,0.60
2017-12-27T11:02:54.422Z,0.87
2017-12-27T11:05:21.923Z,1.33
2017-12-27T11:07:49.471Z,0.70
2017-12-27T11:10:16.977Z,0.67
2017-12-27T11:12:45.295Z,0.70
2017-12-27T11:15:12.808Z,0.50
2017-12-27T11:17:40.311Z,0.90
2017-12-27T11:20:07.851Z,0.70
2017-12-27T11:22:35.350Z,0.77
2017-12-27T11:25:03.689Z,0.70
2017-12-27T11:27:31.199Z,0.90
2017-12-27T11:29:58.743Z,0.70
2017-12-27T11:32:26.251Z,0.70
2017-12-27T11:34:54.576Z,0.83
2017-12-27T11:37:22.071Z,0.63
2017-12-27T11:39:49.572Z,1.00
2017-12-27T11:42:17.112Z,0.93
2017-12-27T11:44:44.619Z,0.67
2017-12-27T11:47:12.179Z,0.90
2017-12-27T11:49:39.687Z,0.60
2017-12-27T11:52:07.991Z,0.90
2017-12-27T11:54:35.496Z,0.70
2017-12-27T11:57:03.051Z,0.70
2017-12-27T11:59:30.562Z,0.70
2017-12-27T12:01:58.115Z,0.60
2017-12-27T12:04:25.668Z,0.67
2017-12-27T12:06:53.218Z,0.63
2017-12-27T12:09:20.743Z,0.70
2017-12-27T12:11:48.302Z,0.60
2017-12-27T12:14:15.803Z,0.67
2017-12-27T12:16:43.308Z,0.60
2017-12-27T12:19:10.856Z,0.70
2017-12-27T12:21:38.376Z,0.73
2017-12-27T12:24:05.918Z,0.63
2017-12-27T12:26:33.423Z,0.90
2017-12-27T12:29:00.974Z,0.73
2017-12-27T12:31:28.480Z,0.73
2017-12-27T12:33:56.032Z,0.60
2017-12-27T12:36:23.576Z,0.60
2017-12-27T12:38:51.076Z,0.80
2017-12-27T12:41:18.611Z,0.73
2017-12-27T12:43:46.912Z,0.90
2017-12-27T12:46:14.456Z,0.80
2017-12-27T12:48:42.731Z,0.77
2017-12-27T12:51:10.286Z,1.20
2017-12-27T12:53:37.804Z,0.70
2017-12-27T12:56:06.124Z,0.60
2017-12-27T12:58:33.627Z,0.80
2017-12-27T13:01:01.167Z,0.80
2017-12-27T13:03:28.672Z,0.60
2017-12-27T13:05:56.179Z,0.50
2017-12-27T13:08:24.499Z,1.00
2017-12-27T13:10:52.009Z,1.00
2017-12-27T13:13:19.564Z,0.93
2017-12-27T13:15:47.112Z,0.80
2017-12-27T13:18:14.724Z,0.97
2017-12-27T13:20:42.348Z,0.63
2017-12-27T13:23:09.907Z,1.00
2017-12-27T13:25:38.183Z,1.00
2017-12-27T13:28:05.689Z,1.13
2017-12-27T13:30:33.267Z,0.70
2017-12-27T13:33:00.772Z,0.90
2017-12-27T13:35:28.344Z,0.60
2017-12-27T13:37:55.855Z,0.70
2017-12-27T13:40:23.382Z,0.80
2017-12-27T13:42:50.949Z,1.10
2017-12-27T13:45:18.459Z,1.13
2017-12-27T13:47:46.787Z,0.80
2017-12-27T13:50:14.336Z,0.80
2017-12-27T13:52:42.678Z,0.80
2017-12-27T13:55:10.186Z,0.90
2017-12-27T13:57:37.747Z,0.90
2017-12-27T14:00:05.264Z,1.27
2017-12-27T14:02:32.778Z,1.20
2017-12-27T14:05:00.328Z,1.10
2017-12-27T14:07:27.829Z,1.20
2017-12-27T14:09:55.376Z,0.87
2017-12-27T14:12:22.892Z,1.23
2017-12-27T14:14:50.466Z,1.30
2017-12-27T14:17:17.985Z,1.10
2017-12-27T14:19:45.529Z,0.80
2017-12-27T14:22:13.163Z,0.80
2017-12-27T14:24:40.732Z,0.80
2017-12-27T14:27:09.028Z,0.83
2017-12-27T14:29:36.575Z,0.87
2017-12-27T14:32:04.101Z,0.80
2017-12-27T14:34:31.655Z,0.70
2017-12-27T14:36:59.176Z,1.10
2017-12-27T14:39:26.688Z,0.80
2017-12-27T14:41:54.239Z,0.97
2017-12-27T14:44:21.781Z,0.73
2017-12-27T14:46:49.333Z,1.30
2017-12-27T14:49:17.636Z,1.73
2017-12-27T14:51:45.215Z,1.20
2017-12-27T14:54:12.723Z,1.00
2017-12-27T14:56:40.275Z,1.27
2017-12-27T14:59:07.796Z,1.10
2017-12-27T15:01:36.136Z,1.60
2017-12-27T15:04:03.684Z,0.90
2017-12-27T15:06:31.212Z,1.40
2017-12-27T15:08:58.767Z,1.00
2017-12-27T15:11:26.270Z,1.10
2017-12-27T15:13:54.601Z,1.00
2017-12-27T15:16:22.122Z,1.53
2017-12-27T15:18:49.683Z,1.57
2017-12-27T15:21:17.202Z,1.27
2017-12-27T15:23:44.751Z,1.50
2017-12-27T15:26:13.116Z,1.50
2017-12-27T15:28:40.680Z,1.63
2017-12-27T15:31:08.264Z,2.20
2017-12-27T15:33:35.783Z,2.03
2017-12-27T15:36:03.338Z,2.10
2017-12-27T15:38:31.614Z,2.23
2017-12-27T15:40:59.171Z,1.80
2017-12-27T15:43:26.691Z,1.50
2017-12-27T15:45:54.227Z,1.83
2017-12-27T15:48:21.732Z,1.33
2017-12-27T15:50:49.304Z,1.53
2017-12-27T15:53:16.822Z,1.20
2017-12-27T15:55:44.343Z,1.80
2017-12-27T15:58:11.899Z,1.23
2017-12-27T16:00:39.403Z,1.60
2017-12-27T16:03:06.952Z,2.00
2017-12-27T16:05:34.455Z,1.80
2017-12-27T16:08:02.042Z,3.10
2017-12-27T16:10:29.603Z,1.70
2017-12-27T16:12:57.159Z,2.20
2017-12-27T16:15:24.668Z,2.77
2017-12-27T16:17:52.379Z,1.40
2017-12-27T16:20:20.651Z,2.90
2017-12-27T16:22:48.192Z,4.10
2017-12-27T16:25:15.733Z,3.47
2017-12-27T16:27:43.244Z,3.20
2017-12-27T16:30:10.836Z,2.70
2017-12-27T16:32:38.400Z,3.30
2017-12-27T16:35:05.953Z,2.93
2017-12-27T16:37:33.480Z,2.90
2017-12-27T16:40:01.795Z,3.27
2017-12-27T16:42:29.299Z,3.03
2017-12-27T16:44:56.863Z,2.80
2017-12-27T16:47:24.400Z,2.77
2017-12-27T16:49:51.908Z,2.90
2017-12-27T16:52:19.456Z,2.30
2017-12-27T16:54:47.018Z,3.27
2017-12-27T16:57:15.388Z,2.27
2017-12-27T16:59:43.671Z,2.73
2017-12-27T17:02:11.992Z,2.50
2017-12-27T17:04:39.526Z,3.17
2017-12-27T17:07:07.072Z,2.90
2017-12-27T17:09:34.583Z,5.50
2017-12-27T17:12:02.900Z,3.80
2017-12-27T17:14:30.425Z,2.90
2017-12-27T17:16:57.992Z,2.23
2017-12-27T17:19:25.495Z,2.27
2017-12-27T17:21:53.782Z,2.33
2017-12-27T17:24:22.099Z,2.03
2017-12-27T17:26:50.379Z,2.30
2017-12-27T17:29:17.923Z,3.10
2017-12-27T17:31:46.248Z,2.27
2017-12-27T17:34:14.136Z,2.53
2017-12-27T17:36:41.655Z,2.20
2017-12-27T17:39:09.236Z,2.63
2017-12-27T17:41:37.662Z,2.37
2017-12-27T17:44:05.176Z,2.40
2017-12-27T17:46:32.723Z,2.80
2017-12-27T17:49:00.241Z,2.57
2017-12-27T17:51:27.792Z,2.47
2017-12-27T17:53:55.307Z,2.97
2017-12-27T17:56:22.875Z,3.60
2017-12-27T17:58:51.152Z,2.70
2017-12-27T18:01:19.438Z,2.90
2017-12-27T18:03:46.991Z,3.47
2017-12-27T18:06:14.592Z,2.60
2017-12-27T18:08:42.908Z,3.57
2017-12-27T18:11:10.448Z,3.93
2017-12-27T18:13:37.998Z,3.53
2017-12-27T18:16:05.507Z,3.60
2017-12-27T18:18:33.071Z,3.67
2017-12-27T18:21:01.355Z,3.17
2017-12-27T18:23:29.637Z,3.57
2017-12-27T18:25:57.191Z,3.60
2017-12-27T18:28:24.702Z,3.30
2017-12-27T18:30:53.021Z,3.37
2017-12-27T18:33:20.536Z,4.07
2017-12-27T18:35:48.093Z,3.80
2017-12-27T18:38:15.616Z,3.70
2017-12-27T18:40:43.175Z,3.33
2017-12-27T18:43:11.448Z,3.50
2017-12-27T18:45:39.007Z,3.77
2017-12-27T18:48:06.516Z,3.13
2017-12-27T18:50:34.795Z,3.30
2017-12-27T18:53:03.124Z,2.90
2017-12-27T18:55:30.623Z,3.70
2017-12-27T18:57:58.197Z,2.93
2017-12-27T19:00:25.710Z,3.00
2017-12-27T19:02:53.268Z,3.30
2017-12-27T19:05:20.785Z,2.70
2017-12-27T19:07:48.331Z,3.50
2017-12-27T19:10:15.852Z,3.27
2017-12-27T19:12:43.413Z,3.10
2017-12-27T19:15:11.004Z,3.87
2017-12-27T19:17:38.509Z,3.80
2017-12-27T19:20:06.819Z,3.03
2017-12-27T19:22:34.376Z,3.30
2017-12-27T19:25:02.692Z,3.10
2017-12-27T19:27:30.196Z,2.80
2017-12-27T19:29:57.743Z,3.70
2017-12-27T19:32:25.276Z,2.90
2017-12-27T19:34:53.585Z,2.60
2017-12-27T19:37:21.087Z,2.43
2017-12-27T19:39:48.643Z,3.20
2017-12-27T19:42:16.220Z,3.60
2017-12-27T19:44:43.784Z,3.07
2017-12-27T19:47:11.299Z,3.47
2017-12-27T19:49:38.803Z,3.50
2017-12-27T19:52:07.111Z,3.50
2017-12-27T19:54:34.619Z,2.60
2017-12-27T19:57:02.222Z,2.80
2017-12-27T19:59:29.735Z,3.40
2017-12-27T20:01:57.311Z,2.93
2017-12-27T20:04:24.819Z,3.30
2017-12-27T20:06:52.379Z,3.20
2017-12-27T20:09:19.896Z,3.73
2017-12-27T20:11:50.852Z,5.20
2017-12-27T20:14:19.456Z,5.03
2017-12-27T20:16:46.989Z,4.40
2017-12-27T20:19:14.532Z,3.37
2017-12-27T20:21:42.039Z,3.60
2017-12-27T20:24:09.639Z,4.23
2017-12-27T20:26:37.155Z,3.17
2017-12-27T20:29:04.665Z,3.40
2017-12-27T20:31:32.222Z,3.17
2017-12-27T20:33:59.735Z,3.13
2017-12-27T20:36:27.289Z,3.40
2017-12-27T20:38:55.573Z,3.40
2017-12-27T20:41:24.092Z,3.67
2017-12-27T20:43:51.707Z,3.80
2017-12-27T20:46:19.271Z,3.60
2017-12-27T20:48:46.777Z,3.43
2017-12-27T20:51:14.295Z,3.27
2017-12-27T20:53:41.848Z,3.10
2017-12-27T20:56:09.408Z,2.83
2017-12-27T20:58:37.719Z,2.67
2017-12-27T21:01:09.215Z,2.47
2017-12-27T21:03:36.788Z,3.40
2017-12-27T21:06:04.300Z,2.37
2017-12-27T21:08:32.628Z,3.50
2017-12-27T21:11:00.135Z,3.13
2017-12-27T21:13:27.683Z,2.80
2017-12-27T21:15:55.196Z,3.00
2017-12-27T21:18:22.779Z,3.53
2017-12-27T21:20:51.080Z,3.70
2017-12-27T21:23:18.595Z,3.00
2017-12-27T21:25:46.147Z,3.07
2017-12-27T21:28:13.715Z,3.50
2017-12-27T21:30:41.265Z,3.40
2017-12-27T21:33:09.537Z,3.30
2017-12-27T21:35:37.088Z,3.23
2017-12-27T21:38:04.602Z,3.20
2017-12-27T21:40:32.923Z,3.40
2017-12-27T21:43:00.442Z,3.20
2017-12-27T21:45:28.791Z,3.20
2017-12-27T21:48:02.029Z,3.00
2017-12-27T21:50:29.587Z,3.00
2017-12-27T21:52:57.098Z,2.80
2017-12-27T21:55:24.732Z,3.30
2017-12-27T21:57:52.256Z,3.10
2017-12-27T22:00:25.552Z,3.37
2017-12-27T22:02:53.112Z,3.63
2017-12-27T22:05:21.398Z,4.00
2017-12-27T22:07:48.959Z,3.53
2017-12-27T22:10:16.498Z,3.70
2017-12-27T22:12:44.049Z,3.57
2017-12-27T22:15:11.628Z,5.03
2017-12-27T22:17:39.215Z,3.40
2017-12-27T22:20:12.330Z,4.57
2017-12-27T22:22:39.900Z,4.17
2017-12-27T22:25:07.422Z,5.10
2017-12-27T22:27:35.702Z,5.43
2017-12-27T22:30:03.252Z,5.60
2017-12-27T22:32:30.756Z,5.40
2017-12-27T22:34:58.300Z,6.33
2017-12-27T22:37:25.816Z,5.50
2017-12-27T22:39:53.406Z,6.90
2017-12-27T22:42:20.940Z,7.33
2017-12-27T22:44:49.263Z,7.97
2017-12-27T22:47:16.794Z,7.77
2017-12-27T22:49:44.351Z,8.30
2017-12-27T22:52:11.856Z,8.90
2017-12-27T22:54:40.143Z,10.57
2017-12-27T22:57:08.464Z,12.07
2017-12-27T22:59:35.997Z,11.77
2017-12-27T23:02:03.556Z,13.90
2017-12-27T23:04:31.076Z,16.30
2017-12-27T23:06:58.635Z,15.60
2017-12-27T23:09:26.154Z,18.10
2017-12-27T23:11:54.475Z,17.93
2017-12-27T23:14:22.795Z,18.77
2017-12-27T23:16:50.309Z,23.57
2017-12-27T23:19:17.855Z,18.77
2017-12-27T23:21:45.369Z,24.27
2017-12-27T23:24:12.915Z,18.93
2017-12-27T23:26:40.570Z,19.20
2017-12-27T23:29:08.452Z,20.23
2017-12-27T23:31:35.963Z,20.20
2017-12-27T23:34:03.757Z,20.07
2017-12-27T23:36:32.040Z,19.87
2017-12-27T23:39:00.313Z,21.80
2017-12-27T23:41:27.858Z,20.90
2017-12-27T23:43:55.363Z,22.00
2017-12-27T23:46:22.920Z,21.90
2017-12-27T23:48:50.440Z,18.70
2017-12-27T23:51:18.946Z,18.40
2017-12-27T23:53:46.463Z,14.87
2017-12-27T23:56:13.977Z,12.13
2017-12-27T23:58:41.535Z,10.27
